Time;durP1;ratioP1;P1;durP2;ratioP2;P2;SDS_P1;SDS_P2;PMS_P1;PMS_P2;Temp;Humidity;BMP_temperature;BMP_pressure;BME280_temperature;BME280_humidity;BME280_pressure;Samples;Min_cycle;Max_cycle;Signal;HPM_P1;HPM_P2
2022/09/05 00:01:52;;;;;;;;;;;;;;;17.04;100.00;-25546.75;5053292;28;19944;-78
2022/09/05 00:04:21;;;;;;;;;;;;;;;17.03;100.00;-25546.47;5054902;28;19939;-78
2022/09/05 00:07:10;;;;;;;;;;;;;;;16.95;100.00;-25544.16;5054772;28;19967;-79
2022/09/05 00:09:54;;;;;;;;;;;;;;;16.79;100.00;-25539.78;5054027;28;19928;-78
2022/09/05 00:12:20;;;;;;;;;;;;;;;16.69;100.00;-25537.03;5054823;28;19921;-78
2022/09/05 00:15:00;;;;;;;;;;;;;;;16.60;100.00;-25534.28;5056098;28;19924;-78
2022/09/05 00:17:49;;;;;;;;;;;;;;;16.68;100.00;-25536.75;5054614;28;20440;-78
2022/09/05 00:20:22;;;;;;;;;;;;;;;16.75;100.00;-25538.47;5054138;28;19927;-78
2022/09/05 00:22:49;;;;;;;;;;;;;;;16.75;100.00;-25538.47;5054441;28;19928;-82
2022/09/05 00:25:18;;;;;;;;;;;;;;;16.76;100.00;-25538.78;5054645;28;19921;-82
2022/09/05 00:27:43;;;;;;;;;;;;;;;16.83;100.00;-25540.81;5055082;28;19943;-82
2022/09/05 00:30:13;;;;;;;;;;;;;;;16.85;100.00;-25541.38;5054485;28;19920;-80
2022/09/05 00:32:58;;;;;;;;;;;;;;;16.92;100.00;-25543.41;5055009;28;20381;-82
2022/09/05 00:35:35;;;;;;;;;;;;;;;16.94;100.00;-25544.00;5054731;28;20285;-82
2022/09/05 00:38:11;;;;;;;;;;;;;;;16.96;100.00;-25544.44;5055388;28;19920;-81
2022/09/05 00:40:42;;;;;;;;;;;;;;;17.01;100.00;-25545.88;5054936;28;19924;-83
2022/09/05 00:43:41;;;;;;;;;;;;;;;17.08;100.00;-25547.91;5053847;28;19921;-83
2022/09/05 00:46:12;;;;;;;;;;;;;;;17.10;100.00;-25548.34;5018490;28;19948;-82
2022/09/05 00:48:44;;;;;;;;;;;;;;;17.18;100.00;-25550.81;5054758;28;19925;-82
2022/09/05 00:51:27;;;;;;;;;;;;;;;17.19;100.00;-25550.97;5053431;28;19928;-83
2022/09/05 00:54:23;;;;;;;;;;;;;;;17.17;100.00;-24888.97;5054045;28;19925;-79
2022/09/05 00:57:04;;;;;;;;;;;;;;;17.08;100.00;-19606.03;5053928;28;19979;-83
2022/09/05 00:59:35;;;;;;;;;;;;;;;17.09;100.00;-17624.16;5053853;28;19944;-80
2022/09/05 01:02:03;;;;;;;;;;;;;;;17.09;100.00;-15641.06;5053725;28;19920;-79
2022/09/05 01:04:48;;;;;;;;;;;;;;;16.97;100.00;-14317.09;5053942;28;19920;-78
2022/09/05 01:07:29;;;;;;;;;;;;;;;17.04;100.00;-12994.88;5053754;28;19988;-78
2022/09/05 01:09:55;;;;;;;;;;;;;;;17.03;100.00;-12333.13;5055493;28;19927;-82
2022/09/05 01:12:40;;;;;;;;;;;;;;;17.06;100.00;-12002.47;5053762;28;19971;-78
2022/09/05 01:15:09;;;;;;;;;;;;;;;17.02;100.00;-12994.69;5053743;28;19955;-82
2022/09/05 01:17:41;;;;;;;;;;;;;;;17.03;100.00;-14317.75;5054056;28;19921;-79
2022/09/05 01:20:12;;;;;;;;;;;;;;;16.98;100.00;-15970.16;5054461;28;19925;-77
2022/09/05 01:22:40;;;;;;;;;;;;;;;16.99;100.00;-17952.97;5054449;28;19992;-78
2022/09/05 01:25:08;;;;;;;;;;;;;;;16.95;100.00;-18612.91;5053259;28;19921;-78
2022/09/05 01:27:38;;;;;;;;;;;;;;;16.86;100.00;-19271.81;5053462;28;20353;-78
2022/09/05 01:30:09;;;;;;;;;;;;;;;16.91;100.00;-20593.09;5053545;28;19967;-83
2022/09/05 01:32:50;;;;;;;;;;;;;;;16.91;100.00;-20923.16;5051709;28;19983;-81
2022/09/05 01:35:30;;;;;;;;;;;;;;;16.84;100.00;-21911.78;5052481;28;20289;-82
2022/09/05 01:37:58;;;;;;;;;;;;;;;16.82;100.00;-22241.22;5054264;28;19980;-82
2022/09/05 01:40:24;;;;;;;;;;;;;;;16.80;100.00;-22900.47;5054912;28;19987;-82
2022/09/05 01:43:00;;;;;;;;;;;;;;;16.84;100.00;-24880.00;5054686;28;19920;-81
2022/09/05 01:45:25;;;;;;;;;;;;;;;16.79;100.00;-25208.25;5053057;28;19913;-81
2022/09/05 01:48:00;;;;;;;;;;;;;;;16.77;100.00;-25207.53;5051608;28;19927;-82
2022/09/05 01:50:38;;;;;;;;;;;;;;;16.80;100.00;-25538.16;5052675;28;19917;-83
2022/09/05 01:53:24;;;;;;;;;;;;;;;16.75;100.00;-25536.69;5053740;28;19917;-82
2022/09/05 01:55:58;;;;;;;;;;;;;;;16.71;100.00;-25535.53;5053127;28;19927;-82
2022/09/05 01:58:39;;;;;;;;;;;;;;;16.71;100.00;-25537.47;5053037;28;19923;-83
2022/09/05 02:01:04;;;;;;;;;;;;;;;16.74;100.00;-25538.19;5053099;28;19945;-82
2022/09/05 02:03:50;;;;;;;;;;;;;;;16.74;100.00;-25538.19;5053552;28;20529;-82
2022/09/05 02:06:15;;;;;;;;;;;;;;;16.67;100.00;-25536.31;5052995;28;19943;-82
2022/09/05 02:08:49;;;;;;;;;;;;;;;16.69;100.00;-25534.97;5053280;28;19917;-82
2022/09/05 02:11:15;;;;;;;;;;;;;;;16.65;100.00;-25204.25;5053237;28;20375;-82
2022/09/05 02:14:00;;;;;;;;;;;;;;;16.66;100.00;-25204.69;5052623;28;20011;-82
2022/09/05 02:16:43;;;;;;;;;;;;;;;16.64;100.00;-25204.13;5053712;28;19924;-82
2022/09/05 02:19:08;;;;;;;;;;;;;;;16.65;100.00;-25204.25;5039849;28;19920;-83
2022/09/05 02:21:36;;;;;;;;;;;;;;;16.65;100.00;-24874.69;5052715;28;19975;-83
2022/09/05 02:24:20;;;;;;;;;;;;;;;16.59;100.00;-24214.03;5051311;28;19912;-83
2022/09/05 02:26:45;;;;;;;;;;;;;;;16.56;100.00;-23883.47;5031604;28;19990;-81
2022/09/05 02:29:14;;;;;;;;;;;;;;;16.49;100.00;-23881.91;5041009;28;20289;-82
2022/09/05 02:31:40;;;;;;;;;;;;;;;16.45;100.00;-24210.38;5036311;28;19927;-82
2022/09/05 02:34:08;;;;;;;;;;;;;;;16.41;100.00;-24538.81;5052258;28;19917;-81
2022/09/05 02:36:43;;;;;;;;;;;;;;;16.38;100.00;-25196.72;5052819;28;19968;-82
2022/09/05 02:39:14;;;;;;;;;;;;;;;16.36;100.00;-25525.53;5052085;28;19972;-82
2022/09/05 02:41:42;;;;;;;;;;;;;;;16.32;100.00;-25526.44;5052456;28;19928;-80
2022/09/05 02:44:35;;;;;;;;;;;;;;;16.32;100.00;-25526.44;5052215;28;20001;-82
2022/09/05 02:47:08;;;;;;;;;;;;;;;16.35;100.00;-25527.31;5053142;28;19970;-81
2022/09/05 02:49:33;;;;;;;;;;;;;;;16.35;100.00;-25527.31;5052138;28;19979;-81
2022/09/05 02:52:04;;;;;;;;;;;;;;;16.36;100.00;-25527.44;5051519;28;19924;-80
2022/09/05 02:54:37;;;;;;;;;;;;;;;16.36;100.00;-25527.59;5051228;28;20128;-78
2022/09/05 02:57:17;;;;;;;;;;;;;;;16.40;100.00;-25528.63;5044758;28;19925;-82
2022/09/05 03:00:06;;;;;;;;;;;;;;;16.37;100.00;-25527.88;5057011;28;19921;-80
2022/09/05 03:02:50;;;;;;;;;;;;;;;16.42;100.00;-25529.19;5052855;28;19920;-80
2022/09/05 03:05:41;;;;;;;;;;;;;;;16.42;100.00;-25529.19;5052599;28;19921;-83
2022/09/05 03:08:09;;;;;;;;;;;;;;;16.42;100.00;-25529.34;5036943;28;20257;-79
2022/09/05 03:10:35;;;;;;;;;;;;;;;16.41;100.00;-25529.03;5051836;28;19917;-79
2022/09/05 03:13:02;;;;;;;;;;;;;;;16.39;100.00;-25528.31;5051723;28;19921;-78
2022/09/05 03:15:39;;;;;;;;;;;;;;;16.37;100.00;-25527.88;5053454;28;19979;-79
2022/09/05 03:18:23;;;;;;;;;;;;;;;16.33;100.00;-25526.72;5051756;28;19928;-78
2022/09/05 03:21:07;;;;;;;;;;;;;;;16.30;100.00;-25525.84;5051606;28;20385;-79
2022/09/05 03:23:42;;;;;;;;;;;;;;;16.25;100.00;-25524.53;5049974;28;19932;-79
2022/09/05 03:26:14;;;;;;;;;;;;;;;16.27;100.00;-25524.97;5051266;28;19939;-78
2022/09/05 03:28:57;;;;;;;;;;;;;;;16.24;100.00;-25524.25;5052132;28;20343;-80
2022/09/05 03:31:41;;;;;;;;;;;;;;;16.24;100.00;-25524.13;5051599;28;20385;-78
2022/09/05 03:34:33;;;;;;;;;;;;;;;16.23;100.00;-25523.97;5052465;28;19921;-82
2022/09/05 03:37:17;;;;;;;;;;;;;;;16.18;100.00;-25522.50;5046504;28;19925;-79
2022/09/05 03:39:57;;;;;;;;;;;;;;;16.15;100.00;-25521.78;5056895;28;19924;-79
2022/09/05 03:42:28;;;;;;;;;;;;;;;16.10;100.00;-25520.19;5055554;28;20324;-83
2022/09/05 03:45:06;;;;;;;;;;;;;;;16.10;100.00;-25520.19;5056341;28;19966;-81
2022/09/05 03:47:50;;;;;;;;;;;;;;;16.06;100.00;-25519.16;5056108;28;19916;-83
2022/09/05 03:50:27;;;;;;;;;;;;;;;16.02;100.00;-25517.88;5056477;28;19978;-83
2022/09/05 03:52:53;;;;;;;;;;;;;;;16.00;100.00;-25517.44;5054557;28;19977;-83
2022/09/05 03:55:24;;;;;;;;;;;;;;;15.94;100.00;-25515.69;5054007;28;20015;-79
2022/09/05 03:58:09;;;;;;;;;;;;;;;15.91;100.00;-25514.81;5055253;28;19924;-78
2022/09/05 04:00:35;;;;;;;;;;;;;;;15.88;100.00;-25513.94;5054107;28;19916;-78
2022/09/05 04:03:19;;;;;;;;;;;;;;;15.85;100.00;-25513.06;5054295;28;20003;-81
2022/09/05 04:05:51;;;;;;;;;;;;;;;15.84;100.00;-25512.78;5053964;28;19967;-79
2022/09/05 04:08:40;;;;;;;;;;;;;;;15.85;100.00;-25513.06;5053157;28;20388;-82
2022/09/05 04:11:08;;;;;;;;;;;;;;;15.81;100.00;-25512.06;5055191;28;19974;-82
2022/09/05 04:13:37;;;;;;;;;;;;;;;15.77;100.00;-25510.88;5055998;28;20763;-81
2022/09/05 04:16:08;;;;;;;;;;;;;;;15.78;100.00;-25511.19;5053688;28;19924;-79
2022/09/05 04:18:40;;;;;;;;;;;;;;;15.73;100.00;-25509.72;5053392;28;19960;-79
2022/09/05 04:21:19;;;;;;;;;;;;;;;15.71;100.00;-25509.28;5054314;28;19928;-78
2022/09/05 04:23:44;;;;;;;;;;;;;;;15.73;100.00;-25509.72;5054264;28;19924;-78
2022/09/05 04:26:29;;;;;;;;;;;;;;;15.70;100.00;-25508.84;5054272;28;20012;-79
2022/09/05 04:29:02;;;;;;;;;;;;;;;15.69;100.00;-25508.69;5055353;28;20016;-79
2022/09/05 04:31:27;;;;;;;;;;;;;;;15.73;100.00;-25509.72;5056034;28;20007;-79
2022/09/05 04:34:11;;;;;;;;;;;;;;;15.73;100.00;-25509.88;5054942;28;20012;-78
2022/09/05 04:36:38;;;;;;;;;;;;;;;15.71;100.00;-25509.13;5054471;28;20552;-78
2022/09/05 04:39:06;;;;;;;;;;;;;;;15.70;100.00;-25508.84;5055014;28;20325;-79
2022/09/05 04:41:32;;;;;;;;;;;;;;;15.72;100.00;-25509.44;5054716;28;19932;-78
2022/09/05 04:44:04;;;;;;;;;;;;;;;15.71;100.00;-25509.28;5053519;28;19928;-79
2022/09/05 04:46:34;;;;;;;;;;;;;;;15.71;100.00;-25509.28;5052668;28;20003;-79
2022/09/05 04:49:03;;;;;;;;;;;;;;;15.67;100.00;-25507.97;5050460;28;20463;-79
2022/09/05 04:51:46;;;;;;;;;;;;;;;15.67;100.00;-25508.13;5053006;28;19951;-79
2022/09/05 04:54:23;;;;;;;;;;;;;;;15.64;100.00;-25507.25;5052514;28;19917;-79
2022/09/05 04:56:51;;;;;;;;;;;;;;;15.61;100.00;-25506.38;5051985;28;19916;-79
2022/09/05 04:59:22;;;;;;;;;;;;;;;15.64;100.00;-25507.25;5053006;28;19968;-78
2022/09/05 05:01:52;;;;;;;;;;;;;;;15.66;100.00;-25507.69;5052678;28;19924;-79
2022/09/05 05:04:21;;;;;;;;;;;;;;;15.72;100.00;-25509.56;5051555;28;19962;-80
2022/09/05 05:07:06;;;;;;;;;;;;;;;15.81;100.00;-25512.06;5052730;28;19960;-80
2022/09/05 05:09:43;;;;;;;;;;;;;;;15.82;100.00;-25512.34;5048274;28;19917;-80
2022/09/05 05:12:27;;;;;;;;;;;;;;;15.86;100.00;-25513.34;5051965;28;19948;-79
2022/09/05 05:14:59;;;;;;;;;;;;;;;15.88;100.00;-25513.94;5052624;28;20385;-77
2022/09/05 05:17:24;;;;;;;;;;;;;;;15.94;100.00;-25515.69;5051482;28;19917;-80
2022/09/05 05:19:53;;;;;;;;;;;;;;;16.03;100.00;-25518.16;5052387;28;20357;-80
2022/09/05 05:22:19;;;;;;;;;;;;;;;16.23;100.00;-25523.81;5053336;28;20492;-79
2022/09/05 05:24:46;;;;;;;;;;;;;;;16.27;100.00;-25524.97;5051480;28;20011;-79
2022/09/05 05:27:14;;;;;;;;;;;;;;;16.42;100.00;-25529.34;5052007;28;19951;-80
2022/09/05 05:29:42;;;;;;;;;;;;;;;17.09;100.00;-25548.22;5052217;28;20021;-80
2022/09/05 05:32:14;;;;;;;;;;;;;;;18.19;100.00;-25579.22;5051012;28;19947;-79
2022/09/05 05:34:45;;;;;;;;;;;;;;;18.79;100.00;-16325.38;5051624;28;19921;-80
2022/09/05 05:37:17;;;;;;;;;;;;;;;18.91;100.00;-2378.91;5051597;28;20339;-80
2022/09/05 05:40:03;;;;;;;;;;;;;;;19.44;100.00;12304.31;5051179;28;19931;-79
2022/09/05 05:42:28;;;;;;;;;;;;;;;19.46;100.00;33084.13;5048030;28;20031;-80
2022/09/05 05:44:55;;;;;;;;;;;;;;;20.06;100.00;47613.22;5052638;28;20396;-79
2022/09/05 05:47:33;;;;;;;;;;;;;;;20.35;100.00;76112.72;5050489;28;19963;-80
2022/09/05 05:50:01;;;;;;;;;;;;;;;20.75;100.00;143082.06;5051443;28;19917;-80
2022/09/05 05:52:42;;;;;;;;;;;;;;;20.94;100.00;147986.50;5050394;28;19925;-79
2022/09/05 05:55:30;;;;;;;;;;;;;;;20.97;100.00;147994.19;5051094;28;19940;-79
2022/09/05 05:58:04;;;;;;;;;;;;;;;20.50;100.00;147876.28;5051834;28;19924;-78
2022/09/05 06:00:47;;;;;;;;;;;;;;;20.15;100.00;147789.16;5051413;28;19921;-79
2022/09/05 06:03:32;;;;;;;;;;;;;;;19.20;100.00;147553.50;5051443;28;20046;-78
2022/09/05 06:06:15;;;;;;;;;;;;;;;18.66;100.00;147420.38;5052176;28;20288;-79
2022/09/05 06:08:57;;;;;;;;;;;;;;;18.32;100.00;147333.34;5051072;28;19917;-80
2022/09/05 06:11:38;;;;;;;;;;;;;;;18.28;100.00;143464.44;5050806;28;19921;-79
2022/09/05 06:14:06;;;;;;;;;;;;;;;18.10;100.00;120463.06;5049784;28;20007;-82
2022/09/05 06:16:31;;;;;;;;;;;;;;;18.22;100.00;100313.00;5051522;28;20416;-81
2022/09/05 06:19:00;;;;;;;;;;;;;;;18.15;100.00;82265.97;5050524;28;20007;-81
2022/09/05 06:21:39;;;;;;;;;;;;;;;18.37;100.00;78562.47;5049858;28;20442;-81
2022/09/05 06:24:17;;;;;;;;;;;;;;;18.36;100.00;75169.19;5050264;28;19917;-78
2022/09/05 06:26:48;;;;;;;;;;;;;;;18.53;100.00;74514.00;5051429;28;19921;-80
2022/09/05 06:29:13;;;;;;;;;;;;;;;18.54;100.00;75532.06;5049725;28;20281;-79
2022/09/05 06:31:47;;;;;;;;;;;;;;;18.66;100.00;71480.28;5050644;28;19982;-78
2022/09/05 06:34:20;;;;;;;;;;;;;;;18.80;100.00;74888.22;5049156;28;19921;-80
2022/09/05 06:36:50;;;;;;;;;;;;;;;18.92;100.00;77280.41;5052147;28;19920;-81
2022/09/05 06:39:16;;;;;;;;;;;;;;;19.35;100.00;88566.50;5051699;28;20409;-79
2022/09/05 06:41:47;;;;;;;;;;;;;;;19.21;100.00;106980.47;5050136;28;19963;-79
2022/09/05 06:44:30;;;;;;;;;;;;;;;19.01;100.00;100792.00;5050573;28;20008;-80
2022/09/05 06:46:58;;;;;;;;;;;;;;;18.93;100.00;90203.88;5050432;28;19917;-77
2022/09/05 06:49:40;;;;;;;;;;;;;;;18.90;100.00;82712.78;5048979;28;20381;-77
2022/09/05 06:52:24;;;;;;;;;;;;;;;19.02;100.00;81370.59;5051007;28;19920;-77
2022/09/05 06:54:56;;;;;;;;;;;;;;;19.07;100.00;80698.03;5049967;28;19964;-77
2022/09/05 06:57:32;;;;;;;;;;;;;;;19.30;100.00;84472.53;5049514;28;20011;-78
2022/09/05 07:00:04;;;;;;;;;;;;;;;19.36;100.00;94705.63;5051148;28;19921;-76
2022/09/05 07:02:33;;;;;;;;;;;;;;;19.47;100.00;104632.88;5048461;28;19971;-74
2022/09/05 07:05:28;;;;;;;;;;;;;;;19.51;100.00;120066.25;5049359;28;19917;-76
2022/09/05 07:07:53;;;;;;;;;;;;;;;19.69;100.00;125259.44;5044734;28;19927;-78
2022/09/05 07:10:29;;;;;;;;;;;;;;;19.88;100.00;141157.25;5047575;28;20248;-76
2022/09/05 07:12:59;;;;;;;;;;;;;;;20.10;100.00;147777.63;5049331;28;19962;-76
2022/09/05 07:15:34;;;;;;;;;;;;;;;20.19;100.00;147800.69;5049118;28;19917;-75
2022/09/05 07:18:14;;;;;;;;;;;;;;;20.48;100.00;147871.13;5048129;28;20384;-75
2022/09/05 07:20:47;;;;;;;;;;;;;;;20.55;100.00;147889.09;5049368;28;19993;-75
2022/09/05 07:23:39;;;;;;;;;;;;;;;20.83;100.00;147958.34;5048950;28;20586;-74
2022/09/05 07:26:06;;;;;;;;;;;;;;;21.14;100.00;148037.78;5047700;28;19924;-75
2022/09/05 07:28:32;;;;;;;;;;;;;;;21.68;100.00;148171.16;5032779;28;20405;-75
2022/09/05 07:31:02;;;;;;;;;;;;;;;22.00;100.00;148250.66;5048033;28;19924;-76
2022/09/05 07:33:30;;;;;;;;;;;;;;;22.22;100.00;148305.84;5048908;28;20381;-75
2022/09/05 07:36:00;;;;;;;;;;;;;;;22.53;100.00;148384.13;5049081;28;19964;-80
2022/09/05 07:38:31;;;;;;;;;;;;;;;22.78;100.00;148445.72;5048099;28;20335;-76
2022/09/05 07:41:04;;;;;;;;;;;;;;;22.82;100.00;148455.94;5049230;28;19913;-75
2022/09/05 07:43:38;;;;;;;;;;;;;;;22.28;100.00;148321.22;5044562;28;19928;-75
2022/09/05 07:46:10;;;;;;;;;;;;;;;22.08;100.00;148271.19;5047674;28;19924;-76
2022/09/05 07:48:38;;;;;;;;;;;;;;;22.21;100.00;148304.53;5049870;28;20324;-80
2022/09/05 07:51:06;;;;;;;;;;;;;;;22.24;100.00;148312.22;5048894;28;20369;-76
2022/09/05 07:53:34;;;;;;;;;;;;;;;22.36;100.00;148340.53;5047886;28;20377;-75
2022/09/05 07:56:01;;;;;;;;;;;;;;;22.55;100.00;148389.25;5048355;28;19975;-76
2022/09/05 07:58:50;;;;;;;;;;;;;;;22.33;100.00;148332.81;5032189;28;19960;-75
2022/09/05 08:01:17;;;;;;;;;;;;;;;22.38;100.00;148345.63;5047970;28;19923;-71
2022/09/05 08:03:42;;;;;;;;;;;;;;;22.58;100.00;148396.94;5049295;28;20003;-76
2022/09/05 08:06:10;;;;;;;;;;;;;;;22.95;100.00;148489.34;5048084;28;19917;-75
2022/09/05 08:08:59;;;;;;;;;;;;;;;23.33;100.00;148581.78;5048913;28;19970;-74
2022/09/05 08:11:25;;;;;;;;;;;;;;;24.00;100.00;148751.34;5045800;28;19920;-82
2022/09/05 08:13:53;;;;;;;;;;;;;;;24.00;100.00;148750.03;5048346;28;19916;-84
2022/09/05 08:16:21;;;;;;;;;;;;;;;23.82;100.00;148705.06;5049482;28;19947;-78
2022/09/05 08:18:50;;;;;;;;;;;;;;;24.47;100.00;148866.88;5050236;28;19967;-80
2022/09/05 08:21:25;;;;;;;;;;;;;;;24.51;100.00;148878.44;5048529;28;20097;-76
2022/09/05 08:23:57;;;;;;;;;;;;;;;24.92;100.00;148980.00;5053974;28;19912;-77
2022/09/05 08:26:35;;;;;;;;;;;;;;;25.31;100.00;149077.75;5053165;28;19927;-78
2022/09/05 08:29:00;;;;;;;;;;;;;;;25.92;100.00;149230.69;5053509;28;19913;-77
2022/09/05 08:31:35;;;;;;;;;;;;;;;26.13;100.00;149283.50;5053065;28;19928;-83
2022/09/05 08:34:01;;;;;;;;;;;;;;;26.61;100.00;149401.78;5051511;28;20058;-79
2022/09/05 08:36:39;;;;;;;;;;;;;;;27.36;100.00;149589.72;5052904;28;19960;-84
2022/09/05 08:39:06;;;;;;;;;;;;;;;27.27;100.00;149566.50;5052173;28;19939;-81
2022/09/05 08:41:34;;;;;;;;;;;;;;;27.46;100.00;149614.19;5051565;28;19917;-79
2022/09/05 08:44:13;;;;;;;;;;;;;;;27.55;100.00;149638.63;5052785;28;20408;-80
2022/09/05 08:46:38;;;;;;;;;;;;;;;27.30;100.00;149574.22;5052263;28;19924;-79
2022/09/05 08:49:23;;;;;;;;;;;;;;;27.54;100.00;149634.78;5051600;28;19917;-83
2022/09/05 08:51:54;;;;;;;;;;;;;;;27.68;100.00;149669.53;5052641;28;19920;-81
2022/09/05 08:54:36;;;;;;;;;;;;;;;27.60;100.00;149648.94;5052486;28;19923;-82
2022/09/05 08:57:16;;;;;;;;;;;;;;;27.65;100.00;149661.81;5051606;28;19923;-83
2022/09/05 08:59:44;;;;;;;;;;;;;;;27.99;100.00;149746.81;5053440;28;20058;-83
2022/09/05 09:02:10;;;;;;;;;;;;;;;27.67;100.00;149666.94;5052227;28;19921;-83
2022/09/05 09:04:41;;;;;;;;;;;;;;;27.50;100.00;149625.78;5053010;28;20235;-81
2022/09/05 09:07:29;;;;;;;;;;;;;;;27.94;100.00;149735.19;5052307;28;20366;-76
2022/09/05 09:10:03;;;;;;;;;;;;;;;27.60;100.00;149650.22;5051101;28;19917;-76
2022/09/05 09:12:29;;;;;;;;;;;;;;;27.52;100.00;149630.91;5051183;28;19917;-75
2022/09/05 09:14:59;;;;;;;;;;;;;;;27.70;100.00;149674.66;5051073;28;20277;-75
2022/09/05 09:17:28;;;;;;;;;;;;;;;27.77;100.00;149693.97;5050439;28;19939;-76
2022/09/05 09:20:06;;;;;;;;;;;;;;;27.74;100.00;149686.25;5052587;28;20372;-77
2022/09/05 09:22:32;;;;;;;;;;;;;;;27.99;100.00;149748.09;5051373;28;20014;-73
2022/09/05 09:25:09;;;;;;;;;;;;;;;27.93;100.00;149733.84;5050242;28;19956;-78
2022/09/05 09:27:46;;;;;;;;;;;;;;;27.97;100.00;149742.97;5051512;28;20301;-76
2022/09/05 09:30:12;;;;;;;;;;;;;;;28.05;100.00;149762.28;5049667;28;20392;-75
2022/09/05 09:32:58;;;;;;;;;;;;;;;27.93;100.00;149732.59;5051222;28;19917;-76
2022/09/05 09:35:41;;;;;;;;;;;;;;;28.00;100.00;149749.34;5050038;28;19971;-79
2022/09/05 09:38:07;;;;;;;;;;;;;;;28.22;100.00;149804.75;5049875;28;19917;-76
2022/09/05 09:40:41;;;;;;;;;;;;;;;28.54;100.00;149885.88;5051298;28;19920;-74
2022/09/05 09:43:17;;;;;;;;;;;;;;;28.39;100.00;149848.53;5050582;28;19924;-74
2022/09/05 09:46:02;;;;;;;;;;;;;;;28.60;100.00;149901.34;5049409;28;19920;-75
2022/09/05 09:48:30;;;;;;;;;;;;;;;28.26;100.00;149815.03;5050805;28;20350;-75
2022/09/05 09:51:07;;;;;;;;;;;;;;;28.54;100.00;149884.56;5050494;28;19956;-75
2022/09/05 09:53:39;;;;;;;;;;;;;;;28.58;100.00;149896.22;5050477;28;20404;-75
2022/09/05 09:56:13;;;;;;;;;;;;;;;28.53;100.00;149883.28;5050708;28;20361;-75
2022/09/05 09:58:57;;;;;;;;;;;;;;;28.48;100.00;149870.44;5049878;28;19913;-75
2022/09/05 10:01:28;;;;;;;;;;;;;;;28.04;100.00;149760.94;5049717;28;19925;-78
2022/09/05 10:04:12;;;;;;;;;;;;;;;27.80;100.00;149700.41;5050630;28;19932;-76
2022/09/05 10:06:37;;;;;;;;;;;;;;;28.11;100.00;149777.72;5049723;28;19913;-76
2022/09/05 10:09:09;;;;;;;;;;;;;;;28.01;100.00;149753.22;5050720;28;20038;-76
2022/09/05 10:11:34;;;;;;;;;;;;;;;27.76;100.00;149690.09;5050219;28;19941;-75
2022/09/05 10:14:02;;;;;;;;;;;;;;;27.69;100.00;149672.13;5049202;28;20382;-77
2022/09/05 10:16:46;;;;;;;;;;;;;;;27.66;100.00;149665.66;5049987;28;19924;-77
2022/09/05 10:19:27;;;;;;;;;;;;;;;27.42;100.00;149603.88;5049701;28;20380;-76
2022/09/05 10:21:52;;;;;;;;;;;;;;;27.64;100.00;149660.53;5050035;28;19920;-76
2022/09/05 10:24:27;;;;;;;;;;;;;;;27.70;100.00;149674.66;5049969;28;19920;-75
2022/09/05 10:27:01;;;;;;;;;;;;;;;27.52;100.00;149630.91;5049059;28;19921;-78
2022/09/05 10:29:45;;;;;;;;;;;;;;;27.51;100.00;149628.31;5050118;28;19967;-76
2022/09/05 10:32:32;;;;;;;;;;;;;;;27.56;100.00;149639.91;5049673;28;19916;-75
2022/09/05 10:35:15;;;;;;;;;;;;;;;27.69;100.00;149672.13;5049194;28;19923;-76
2022/09/05 10:37:43;;;;;;;;;;;;;;;27.73;100.00;149683.69;5049542;28;19924;-74
2022/09/05 10:40:13;;;;;;;;;;;;;;;27.84;100.00;149710.69;5049302;28;20268;-75
2022/09/05 10:42:46;;;;;;;;;;;;;;;27.98;100.00;149745.50;5049205;28;19958;-76
2022/09/05 10:45:17;;;;;;;;;;;;;;;27.82;100.00;149704.28;5049103;28;19928;-78
2022/09/05 10:47:43;;;;;;;;;;;;;;;27.86;100.00;149715.88;5048797;28;20418;-75
2022/09/05 10:50:28;;;;;;;;;;;;;;;27.83;100.00;149708.16;5049514;28;19944;-75
2022/09/05 10:53:02;;;;;;;;;;;;;;;28.02;100.00;149755.81;5049444;28;19928;-77
2022/09/05 10:55:32;;;;;;;;;;;;;;;28.41;100.00;149853.66;5048403;28;19924;-77
2022/09/05 10:58:00;;;;;;;;;;;;;;;28.72;100.00;149929.72;5050221;28;19983;-79
2022/09/05 11:00:40;;;;;;;;;;;;;;;28.75;100.00;149938.72;5049394;28;19924;-81
2022/09/05 11:03:11;;;;;;;;;;;;;;;28.92;100.00;149981.22;5048845;28;20124;-74
2022/09/05 11:05:37;;;;;;;;;;;;;;;29.14;100.00;150035.34;5050921;28;19917;-76
2022/09/05 11:08:05;;;;;;;;;;;;;;;29.29;100.00;150072.75;5049907;28;19921;-77
2022/09/05 11:10:35;;;;;;;;;;;;;;;28.98;100.00;149996.69;5049054;28;20022;-81
2022/09/05 11:13:04;;;;;;;;;;;;;;;29.15;100.00;150039.19;5049998;28;19917;-80
2022/09/05 11:15:38;;;;;;;;;;;;;;;28.87;100.00;149968.34;5050028;28;19920;-80
2022/09/05 11:18:19;;;;;;;;;;;;;;;29.16;100.00;150040.47;5050918;28;19920;-82
2022/09/05 11:20:53;;;;;;;;;;;;;;;29.28;100.00;150070.16;5050729;28;19924;-81
2022/09/05 11:23:27;;;;;;;;;;;;;;;29.24;100.00;150061.16;5049634;28;19920;-81
2022/09/05 11:25:59;;;;;;;;;;;;;;;29.41;100.00;150102.38;5051102;28;20086;-82
2022/09/05 11:28:37;;;;;;;;;;;;;;;29.55;100.00;150138.44;5050645;28;20372;-78
2022/09/05 11:31:06;;;;;;;;;;;;;;;29.27;100.00;150068.91;5044514;28;20047;-80
2022/09/05 11:33:33;;;;;;;;;;;;;;;29.32;100.00;150081.75;5050565;28;20015;-79
2022/09/05 11:35:58;;;;;;;;;;;;;;;29.39;100.00;150097.22;5050579;28;20130;-76
2022/09/05 11:38:35;;;;;;;;;;;;;;;29.66;100.00;150165.50;5049741;28;20446;-81
2022/09/05 11:41:10;;;;;;;;;;;;;;;29.92;100.00;150231.28;5050609;28;19956;-77
2022/09/05 11:43:51;;;;;;;;;;;;;;;30.06;100.00;150266.09;5050269;28;19951;-81
2022/09/05 11:46:30;;;;;;;;;;;;;;;30.03;100.00;150259.66;5050242;28;19913;-79
2022/09/05 11:48:58;;;;;;;;;;;;;;;29.97;100.00;150242.88;5049908;28;19947;-73
2022/09/05 11:51:23;;;;;;;;;;;;;;;29.95;100.00;150239.00;5061714;28;20400;-76
2022/09/05 11:53:48;;;;;;;;;;;;;;;29.69;100.00;150173.22;5069545;28;19924;-76
2022/09/05 11:56:27;;;;;;;;;;;;;;;29.83;100.00;150208.06;5068716;28;19932;-74
2022/09/05 11:58:55;;;;;;;;;;;;;;;29.82;100.00;150206.81;5070961;28;19952;-73
2022/09/05 12:01:24;;;;;;;;;;;;;;;29.99;100.00;150249.34;5072495;28;20376;-74
2022/09/05 12:04:08;;;;;;;;;;;;;;;30.16;100.00;150290.56;5072463;28;19923;-73
2022/09/05 12:06:46;;;;;;;;;;;;;;;30.12;100.00;150280.28;5073113;28;19924;-74
2022/09/05 12:09:23;;;;;;;;;;;;;;;29.96;100.00;150241.59;5072124;28;19969;-73
2022/09/05 12:12:25;;;;;;;;;;;;;;;29.75;100.00;150187.41;5071626;28;19927;-73
2022/09/05 12:15:01;;;;;;;;;;;;;;;29.77;100.00;150193.88;5040293;28;19920;-73
2022/09/05 12:17:45;;;;;;;;;;;;;;;29.86;100.00;150215.81;5072310;28;20312;-73
2022/09/05 12:20:19;;;;;;;;;;;;;;;29.95;100.00;150239.00;5070783;28;19912;-74
2022/09/05 12:23:05;;;;;;;;;;;;;;;30.15;100.00;150289.28;5073336;28;19923;-73
2022/09/05 12:26:00;;;;;;;;;;;;;;;30.07;100.00;150269.94;5070743;28;19923;-74
2022/09/05 12:28:45;;;;;;;;;;;;;;;30.25;100.00;150315.09;5018427;28;19956;-74
2022/09/05 12:31:18;;;;;;;;;;;;;;;30.37;100.00;150343.44;5060704;28;19923;-73
2022/09/05 12:33:47;;;;;;;;;;;;;;;30.30;100.00;150326.69;5070527;28;19921;-73
2022/09/05 12:36:20;;;;;;;;;;;;;;;30.15;100.00;150289.28;5071266;28;20392;-73
2022/09/05 12:38:49;;;;;;;;;;;;;;;30.24;100.00;150311.22;5072098;28;20341;-76
2022/09/05 12:41:17;;;;;;;;;;;;;;;30.23;100.00;150309.91;5070913;28;19912;-78
2022/09/05 12:44:10;;;;;;;;;;;;;;;30.28;100.00;150321.50;5071965;28;20040;-76
2022/09/05 12:46:44;;;;;;;;;;;;;;;30.32;100.00;150330.56;5048812;28;19917;-76
2022/09/05 12:49:13;;;;;;;;;;;;;;;30.46;100.00;150365.41;5071213;28;19916;-79
2022/09/05 12:51:45;;;;;;;;;;;;;;;30.25;100.00;150313.75;5072298;28;19916;-77
2022/09/05 12:54:16;;;;;;;;;;;;;;;30.30;100.00;150325.38;5070820;28;19956;-78
2022/09/05 12:57:01;;;;;;;;;;;;;;;30.24;100.00;150311.22;5072313;28;19974;-80
2022/09/05 12:59:28;;;;;;;;;;;;;;;30.37;100.00;150344.69;5071725;28;20280;-81
2022/09/05 13:02:06;;;;;;;;;;;;;;;30.39;100.00;150349.94;5071290;28;19920;-82
2022/09/05 13:04:39;;;;;;;;;;;;;;;30.45;100.00;150362.81;5072420;28;19963;-77